Terminal Aerodrome Forecast
Issued by NWS Shreveport, LA

Home | Current Version | Previous Version | Text Only | Print | Product List | Glossary On
Versions: 1 2 3 4 5 6 7 8 9 10 11 12 13 14
000
FTUS44 KSHV 060520
TAFTYR
TAF
KTYR 060520Z 0606/0706 16011KT P6SM SCT080 BKN100 BKN250
     FM060800 16011KT P6SM SCT015 BKN090
      TEMPO 0608/0610 BKN015
     FM061000 16011KT P6SM VCSH BKN015
      TEMPO 0610/0614 5SM -SHRA BR BKN007
     FM061700 17012G18KT P6SM BKN025
     FM061800 17012G18KT P6SM BKN035
     FM070000 15009KT P6SM SCT060 SCT250=

USA.gov is the U.S. government's official web portal to all federal, state and local government web resources and services.